Time;durP1;ratioP1;P1;durP2;ratioP2;P2;SDS_P1;SDS_P2;PMS_P1;PMS_P2;Temp;Humidity;BMP_temperature;BMP_pressure;BME280_temperature;BME280_humidity;BME280_pressure;Samples;Min_cycle;Max_cycle;Signal;HPM_P1;HPM_P2
2022/11/25 00:01:17;;;;;;;13.45;6.95;;;;;;;4.73;87.21;98112.88;5002560;28;20042;-80
2022/11/25 00:03:44;;;;;;;11.88;6.78;;;;;;;4.60;88.62;98096.97;5001846;28;20034;-80
2022/11/25 00:06:24;;;;;;;12.02;6.47;;;;;;;4.56;88.29;98101.69;5001822;28;20113;-80
2022/11/25 00:08:57;;;;;;;13.93;7.38;;;;;;;4.54;88.31;98114.03;5002719;28;20481;-80
2022/11/25 00:11:24;;;;;;;15.07;7.07;;;;;;;4.44;87.74;98108.19;5003604;28;20029;-80
2022/11/25 00:13:50;;;;;;;11.30;7.45;;;;;;;4.43;87.93;98109.13;5001851;28;20114;-80
2022/11/25 00:16:19;;;;;;;12.63;7.10;;;;;;;4.35;88.03;98103.13;5002912;28;20032;-80
2022/11/25 00:18:54;;;;;;;11.90;7.32;;;;;;;4.40;88.39;98101.69;5003062;28;20373;-80
2022/11/25 00:21:23;;;;;;;12.15;6.65;;;;;;;4.38;87.98;98107.97;5003086;28;20034;-80
2022/11/25 00:24:00;;;;;;;9.15;6.32;;;;;;;4.42;88.07;98110.09;5003038;28;20415;-82
2022/11/25 00:26:28;;;;;;;13.02;6.03;;;;;;;4.41;88.95;98105.09;5002312;28;20038;-82
2022/11/25 00:28:56;;;;;;;10.55;6.72;;;;;;;4.35;88.53;98111.72;5003451;28;20045;-82
2022/11/25 00:31:28;;;;;;;13.15;7.10;;;;;;;4.38;88.86;98107.97;5002040;28;20042;-82
2022/11/25 00:33:55;;;;;;;10.50;6.75;;;;;;;4.38;88.22;98106.22;5003153;28;20075;-82
2022/11/25 00:36:23;;;;;;;11.05;6.40;;;;;;;4.40;87.95;98106.06;5002509;28;20054;-82
2022/11/25 00:39:06;;;;;;;10.75;6.40;;;;;;;4.39;88.01;98100.06;5004286;28;20061;-82
2022/11/25 00:44:34;;;;;;;9.55;6.03;;;;;;;4.38;87.64;98103.63;5000251;28;20032;-82
2022/11/25 00:47:06;;;;;;;15.48;6.78;;;;;;;4.37;87.54;98104.56;5000689;28;20041;-82
2022/11/25 00:49:32;;;;;;;11.00;6.53;;;;;;;4.33;87.66;98108.47;5001453;28;20038;-82
2022/11/25 00:51:58;;;;;;;14.07;7.25;;;;;;;4.28;87.87;98108.16;5001060;28;20056;-82
2022/11/25 00:54:23;;;;;;;12.80;7.82;;;;;;;4.26;87.88;98110.09;5002657;28;20482;-83
2022/11/25 00:56:50;;;;;;;10.57;6.85;;;;;;;4.27;87.76;98117.72;5002620;28;20123;-82
2022/11/25 00:59:15;;;;;;;13.65;6.88;;;;;;;4.28;87.61;98110.75;4999651;28;20045;-82
2022/11/25 01:01:41;;;;;;;11.70;7.40;;;;;;;4.23;87.28;98115.59;5000436;28;20429;-82
2022/11/25 01:04:07;;;;;;;14.25;7.88;;;;;;;4.12;87.08;98105.50;5001516;28;20037;-82
2022/11/25 01:06:34;;;;;;;10.45;6.88;;;;;;;4.07;87.89;98110.34;5001871;28;20113;-82
2022/11/25 01:09:00;;;;;;;9.65;6.28;;;;;;;4.02;89.70;98118.63;5000722;28;20046;-81
2022/11/25 01:11:25;;;;;;;9.13;6.22;;;;;;;3.99;90.45;98098.97;5001943;28;20091;-80
2022/11/25 01:13:53;;;;;;;12.30;6.40;;;;;;;4.01;90.21;98120.38;5002304;28;20045;-80
2022/11/25 01:16:20;;;;;;;12.48;6.93;;;;;;;4.00;90.15;98116.16;5001197;28;20405;-80
2022/11/25 01:18:46;;;;;;;10.50;6.35;;;;;;;3.93;89.75;98114.38;5001647;28;20034;-80
2022/11/25 01:21:18;;;;;;;15.35;6.78;;;;;;;3.90;89.31;98112.91;5000847;28;20513;-80
2022/11/25 01:23:47;;;;;;;11.88;6.57;;;;;;;3.84;90.11;98121.31;5001192;28;20034;-80
2022/11/25 01:26:20;;;;;;;8.48;5.82;;;;;;;3.86;90.32;98116.78;5001282;28;20505;-80
2022/11/25 01:28:47;;;;;;;9.68;6.72;;;;;;;3.84;90.53;98116.13;5002467;28;20038;-80
2022/11/25 01:31:19;;;;;;;8.45;6.15;;;;;;;3.84;89.15;98115.28;5000963;28;20050;-80
2022/11/25 01:33:47;;;;;;;11.65;6.47;;;;;;;3.86;88.54;98109.00;5002115;28;20049;-80
2022/11/25 01:36:16;;;;;;;11.65;7.05;;;;;;;3.85;87.87;98111.75;5002738;28;20022;-80
2022/11/25 01:38:44;;;;;;;8.13;5.93;;;;;;;3.86;88.47;98108.19;5001183;28;20042;-80
2022/11/25 01:41:13;;;;;;;9.07;6.35;;;;;;;3.94;88.59;98116.00;5002439;28;20045;-80
2022/11/25 01:43:40;;;;;;;12.18;6.60;;;;;;;3.97;88.35;98121.69;5002098;28;20498;-80
2022/11/25 01:46:28;;;;;;;10.57;6.88;;;;;;;4.00;87.70;98115.38;4998538;28;20035;-80
2022/11/25 01:49:10;;;;;;;9.40;6.22;;;;;;;3.99;87.45;98113.75;5000234;28;20430;-81
2022/11/25 01:51:44;;;;;;;;;;;;;;;4.00;87.41;98110.97;5002302;28;20121;-80
2022/11/25 01:54:16;;;;;;;9.82;6.15;;;;;;;3.98;87.03;98112.94;5002626;28;19921;-80
2022/11/25 01:56:51;;;;;;;9.68;6.72;;;;;;;3.96;86.71;98114.88;5001889;28;20048;-79
2022/11/25 01:59:17;;;;;;;10.63;6.18;;;;;;;3.84;89.44;98113.53;5003440;28;20053;-80
2022/11/25 02:01:42;;;;;;;9.07;6.43;;;;;;;3.86;88.04;98118.56;5005094;28;20038;-80
2022/11/25 02:04:11;;;;;;;9.55;6.78;;;;;;;3.83;87.26;98117.06;5005305;28;20046;-80
2022/11/25 02:06:54;;;;;;;11.05;6.60;;;;;;;3.84;86.91;98108.34;5004912;28;20112;-80
2022/11/25 02:09:23;;;;;;;9.63;6.93;;;;;;;3.82;86.74;98112.88;5020371;28;20038;-79
2022/11/25 02:11:50;;;;;;;7.63;5.93;;;;;;;3.83;86.65;98114.47;5004420;28;20040;-80
2022/11/25 02:14:21;;;;;;;7.97;6.20;;;;;;;3.80;86.09;98119.19;5004916;28;20045;-80
2022/11/25 02:16:46;;;;;;;7.97;5.72;;;;;;;3.79;86.62;98113.19;5005713;28;20030;-80
2022/11/25 02:19:29;;;;;;;10.00;6.45;;;;;;;3.79;86.51;98118.38;5004995;28;20040;-80
2022/11/25 02:22:02;;;;;;;8.23;5.60;;;;;;;3.73;86.54;98106.84;5005036;28;20038;-81
2022/11/25 02:24:44;;;;;;;8.90;6.10;;;;;;;3.76;86.41;98118.69;5005855;28;20018;-80
2022/11/25 02:27:10;;;;;;;11.18;6.50;;;;;;;3.70;85.95;98108.91;5006050;28;20037;-80
2022/11/25 02:29:38;;;;;;;7.45;5.97;;;;;;;3.67;86.25;98109.25;5003874;28;20049;-80
2022/11/25 02:32:04;;;;;;;10.73;6.35;;;;;;;3.64;86.58;98119.91;5005805;28;20582;-80
2022/11/25 02:34:30;;;;;;;7.32;5.70;;;;;;;3.65;87.06;98121.53;5003812;28;20048;-80
2022/11/25 02:36:55;;;;;;;8.95;6.05;;;;;;;3.61;86.36;98112.47;5004221;28;20034;-80
2022/11/25 02:39:22;;;;;;;9.30;6.10;;;;;;;3.52;85.99;98103.00;5004749;28;20034;-80
2022/11/25 02:41:58;;;;;;;8.60;5.80;;;;;;;3.54;86.77;98114.03;5004276;28;20076;-80
2022/11/25 02:44:23;;;;;;;11.05;6.35;;;;;;;3.53;86.95;98118.41;5002177;28;20036;-80
2022/11/25 02:46:49;;;;;;;9.02;5.68;;;;;;;3.47;86.86;98119.00;5004027;28;20041;-80
2022/11/25 02:49:15;;;;;;;9.10;6.20;;;;;;;3.41;87.47;98110.06;5004435;28;20033;-79
2022/11/25 02:51:43;;;;;;;8.73;6.10;;;;;;;3.42;87.49;98108.31;5003328;28;20022;-80
2022/11/25 02:54:14;;;;;;;8.48;5.78;;;;;;;3.40;87.33;98113.63;5004031;28;20084;-80
2022/11/25 02:56:40;;;;;;;8.65;6.00;;;;;;;3.38;87.07;98105.22;5003561;28;20045;-80
2022/11/25 02:59:06;;;;;;;8.15;6.07;;;;;;;3.36;86.95;98112.34;5003951;28;20065;-80
2022/11/25 03:01:34;;;;;;;9.82;6.18;;;;;;;3.32;86.40;98113.59;5003991;28;20087;-80
2022/11/25 03:04:00;;;;;;;8.65;5.75;;;;;;;3.30;86.59;98115.53;5004690;28;20105;-80
2022/11/25 03:06:26;;;;;;;8.68;5.57;;;;;;;3.29;86.86;98111.31;5003578;28;20030;-81
2022/11/25 03:08:52;;;;;;;9.75;5.72;;;;;;;3.27;86.62;98121.00;5004164;28;20371;-79
2022/11/25 03:11:18;;;;;;;10.90;5.40;;;;;;;3.27;86.56;98120.22;5003751;28;20034;-79
2022/11/25 03:13:43;;;;;;;9.77;5.97;;;;;;;3.25;86.43;98120.38;5003199;28;20041;-80
2022/11/25 03:16:09;;;;;;;11.75;6.10;;;;;;;3.21;86.43;98116.44;5003845;28;20045;-80
2022/11/25 03:18:35;;;;;;;10.80;5.75;;;;;;;3.21;86.61;98122.44;5003165;28;20030;-80
2022/11/25 03:21:01;;;;;;;8.75;5.85;;;;;;;3.19;86.71;98121.78;5020366;28;20061;-80
2022/11/25 03:23:26;;;;;;;8.10;5.13;;;;;;;3.18;86.64;98119.34;5003673;28;20042;-80
2022/11/25 03:25:53;;;;;;;8.18;5.72;;;;;;;3.14;86.51;98128.38;5004478;28;20045;-80
2022/11/25 03:28:18;;;;;;;7.20;5.40;;;;;;;3.10;86.58;98116.69;5003630;28;20033;-80
2022/11/25 03:30:44;;;;;;;8.23;5.72;;;;;;;3.09;86.82;98120.25;5002995;28;20054;-80
2022/11/25 03:33:09;;;;;;;8.27;5.38;;;;;;;3.07;87.17;98122.19;5007130;28;20041;-80
2022/11/25 03:35:35;;;;;;;7.68;5.07;;;;;;;3.04;87.26;98117.28;5005214;28;20029;-80
2022/11/25 03:38:00;;;;;;;7.55;5.10;;;;;;;3.07;87.31;98119.59;5001317;28;20120;-80
2022/11/25 03:40:26;;;;;;;6.55;5.30;;;;;;;3.02;86.78;98127.00;5003325;28;20129;-80
2022/11/25 03:42:51;;;;;;;6.97;4.97;;;;;;;2.88;87.34;98118.81;5003607;28;20034;-80
2022/11/25 03:45:17;;;;;;;9.63;5.90;;;;;;;2.93;87.88;98121.75;5000547;28;20034;-80
2022/11/25 03:47:44;;;;;;;8.32;5.30;;;;;;;2.94;88.39;98123.41;5002940;28;20370;-80
2022/11/25 03:50:13;;;;;;;7.28;4.70;;;;;;;2.85;88.95;98120.88;5003360;28;20046;-80
2022/11/25 03:52:39;;;;;;;7.22;4.80;;;;;;;2.89;89.12;98117.03;5002572;28;20048;-80
2022/11/25 03:55:06;;;;;;;6.85;4.45;;;;;;;2.91;91.28;98112.50;5006875;28;20049;-80
2022/11/25 03:57:32;;;;;;;6.93;4.57;;;;;;;2.83;90.43;98113.25;5002752;28;20038;-80
2022/11/25 03:59:57;;;;;;;8.95;5.68;;;;;;;2.85;89.58;98118.28;5002838;28;20105;-80
2022/11/25 04:02:23;;;;;;;9.60;5.38;;;;;;;2.77;89.78;98115.66;5003314;28;20113;-80
2022/11/25 04:04:49;;;;;;;7.18;5.65;;;;;;;2.79;89.01;98122.28;5003046;28;20541;-79
2022/11/25 04:07:14;;;;;;;10.98;5.97;;;;;;;2.78;88.84;98118.09;5002495;28;20037;-80
2022/11/25 04:09:40;;;;;;;9.75;6.22;;;;;;;2.78;88.39;98119.84;5002743;28;20154;-80
2022/11/25 04:14:49;;;;;;;8.10;4.95;;;;;;;2.71;89.17;98108.47;5003503;28;20069;-80
2022/11/25 04:17:15;;;;;;;9.60;5.70;;;;;;;2.76;88.48;98117.44;5002041;28;20066;-80
2022/11/25 04:19:40;;;;;;;9.05;5.45;;;;;;;2.76;87.03;98117.44;5002546;28;20060;-80
2022/11/25 04:22:06;;;;;;;8.30;5.03;;;;;;;2.82;86.84;98103.03;5003358;28;20073;-80
2022/11/25 04:24:32;;;;;;;9.95;5.30;;;;;;;2.81;86.29;98109.19;5001976;28;20038;-80
2022/11/25 04:26:57;;;;;;;8.80;4.80;;;;;;;2.84;86.56;98107.13;5004184;28;20042;-80
2022/11/25 04:29:23;;;;;;;7.50;4.82;;;;;;;2.82;86.50;98098.69;5005458;28;20084;-80
2022/11/25 04:31:49;;;;;;;6.93;4.93;;;;;;;2.70;86.44;98099.91;5002483;28;20062;-79
2022/11/25 04:34:14;;;;;;;8.25;4.88;;;;;;;2.67;86.49;98107.94;5002703;28;21495;-79
2022/11/25 04:36:40;;;;;;;7.75;5.10;;;;;;;2.68;87.47;98106.97;5001495;28;20117;-79
2022/11/25 04:39:05;;;;;;;7.57;5.25;;;;;;;2.67;87.02;98105.34;5001961;28;20041;-80
2022/11/25 04:41:31;;;;;;;7.22;4.63;;;;;;;2.69;86.68;98119.78;5001616;28;20383;-80
2022/11/25 04:43:59;;;;;;;6.93;4.85;;;;;;;2.65;86.01;98107.28;5002264;28;20421;-80
2022/11/25 04:46:35;;;;;;;6.78;4.40;;;;;;;2.67;86.16;98107.94;4999557;28;20490;-80
2022/11/25 04:49:01;;;;;;;6.22;4.57;;;;;;;2.64;86.63;98098.72;5002734;28;20038;-80
2022/11/25 04:51:26;;;;;;;5.45;4.18;;;;;;;2.65;87.31;98092.56;5001215;28;20073;-80
2022/11/25 04:53:52;;;;;;;6.80;4.93;;;;;;;2.65;87.92;98107.28;5002325;28;20038;-80
2022/11/25 04:56:21;;;;;;;5.25;4.30;;;;;;;2.60;87.37;98109.50;5002111;28;20378;-80
2022/11/25 05:01:30;;;;;;;5.63;4.50;;;;;;;2.66;86.20;98103.72;5000157;28;20034;-80
2022/11/25 05:03:56;;;;;;;8.02;4.40;;;;;;;2.65;85.96;98109.88;5001220;28;20620;-80
2022/11/25 05:06:21;;;;;;;11.43;4.57;;;;;;;2.66;85.87;98111.50;5001428;28;20033;-80
2022/11/25 05:08:48;;;;;;;8.27;4.55;;;;;;;2.60;86.36;98099.16;5002483;28;20468;-80
2022/11/25 05:11:14;;;;;;;6.32;4.50;;;;;;;2.61;86.89;98100.78;5003327;28;20048;-79
2022/11/25 05:13:39;;;;;;;7.18;4.53;;;;;;;2.59;86.68;98111.28;5017120;28;20498;-80
2022/11/25 05:16:06;;;;;;;6.78;4.00;;;;;;;2.56;86.82;98118.53;5001519;28;20530;-80
2022/11/25 05:18:31;;;;;;;5.70;4.18;;;;;;;2.61;86.88;98101.59;5002791;28;20042;-79
2022/11/25 05:21:02;;;;;;;8.82;4.38;;;;;;;2.58;86.23;98107.06;5000569;28;20381;-80
2022/11/25 05:23:28;;;;;;;8.18;4.47;;;;;;;2.57;86.30;98114.97;5002690;28;20083;-80
2022/11/25 05:25:59;;;;;;;5.13;3.90;;;;;;;2.53;86.42;98114.47;5000650;28;20034;-79
2022/11/25 05:28:26;;;;;;;8.00;3.85;;;;;;;2.59;86.49;98113.88;5001608;28;20030;-81
2022/11/25 05:30:52;;;;;;;7.47;4.85;;;;;;;2.58;86.30;98116.59;5002660;28;20050;-80
2022/11/25 05:33:17;;;;;;;6.20;3.85;;;;;;;2.59;86.51;98108.69;5001728;28;20041;-81
2022/11/25 05:35:43;;;;;;;7.03;4.38;;;;;;;2.60;86.47;98099.16;5005285;28;20462;-81
2022/11/25 05:38:08;;;;;;;8.40;4.47;;;;;;;2.58;86.41;98101.06;5005605;28;20049;-80
2022/11/25 05:40:34;;;;;;;8.20;4.53;;;;;;;2.56;87.32;98110.75;5002399;28;20122;-81
2022/11/25 05:43:00;;;;;;;6.55;4.30;;;;;;;2.55;87.11;98103.97;5005493;28;20482;-81
2022/11/25 05:45:26;;;;;;;8.00;4.13;;;;;;;2.53;86.86;98106.69;5002598;28;20038;-80
2022/11/25 05:47:51;;;;;;;6.65;4.20;;;;;;;2.52;87.18;98112.84;5006132;28;20042;-80
2022/11/25 05:50:17;;;;;;;6.82;4.10;;;;;;;2.57;87.44;98109.78;5005018;28;20041;-81
2022/11/25 05:52:42;;;;;;;5.63;4.28;;;;;;;2.58;87.53;98116.59;5004504;28;20083;-81
2022/11/25 05:55:08;;;;;;;6.53;4.28;;;;;;;2.60;87.03;98115.50;5004119;28;20066;-80
2022/11/25 05:57:34;;;;;;;6.82;4.05;;;;;;;2.62;86.79;98112.75;5004978;28;20038;-81
2022/11/25 05:59:59;;;;;;;7.55;4.53;;;;;;;2.62;86.58;98113.56;5020239;28;20038;-81
2022/11/25 06:02:24;;;;;;;8.63;4.35;;;;;;;2.59;86.55;98113.06;5004719;28;20549;-80
2022/11/25 06:04:50;;;;;;;6.57;4.55;;;;;;;2.54;86.61;98115.28;5005577;28;20693;-81
2022/11/25 06:07:15;;;;;;;8.55;4.40;;;;;;;2.55;87.11;98116.91;5004434;28;20097;-81
2022/11/25 06:09:41;;;;;;;6.93;4.30;;;;;;;2.51;87.12;98118.97;5004845;28;20038;-80
2022/11/25 06:12:06;;;;;;;6.28;4.22;;;;;;;2.42;87.26;98115.50;5003206;28;20072;-80
2022/11/25 06:14:32;;;;;;;6.65;4.57;;;;;;;2.45;88.34;98116.16;5006037;28;20045;-81
2022/11/25 06:16:57;;;;;;;10.02;4.90;;;;;;;2.38;88.10;98105.56;5004173;28;20061;-80
2022/11/25 06:19:23;;;;;;;7.25;4.63;;;;;;;2.44;88.04;98123.09;5004655;28;20034;-80
2022/11/25 06:21:48;;;;;;;12.05;5.43;;;;;;;2.45;88.05;98116.97;5004512;28;20034;-80
2022/11/25 06:24:14;;;;;;;7.63;4.68;;;;;;;2.42;87.46;98117.28;5004295;28;20041;-81
2022/11/25 06:26:39;;;;;;;7.63;5.22;;;;;;;2.42;87.41;98125.84;5005166;28;20095;-81
2022/11/25 06:29:05;;;;;;;6.70;4.45;;;;;;;2.46;87.42;98118.63;5005464;28;20026;-81
2022/11/25 06:31:30;;;;;;;7.88;4.85;;;;;;;2.47;86.79;98114.25;5004188;28;20173;-81
2022/11/25 06:33:56;;;;;;;9.25;4.57;;;;;;;2.49;86.79;98120.09;5001247;28;20034;-81
2022/11/25 06:36:22;;;;;;;7.25;4.40;;;;;;;2.48;86.97;98123.63;5004419;28;20117;-81
2022/11/25 06:38:51;;;;;;;9.23;5.28;;;;;;;2.54;86.93;98130.81;5004129;28;20109;-81
2022/11/25 06:41:17;;;;;;;9.48;5.10;;;;;;;2.51;86.69;98131.09;5003338;28;20048;-81
2022/11/25 06:43:43;;;;;;;8.80;5.32;;;;;;;2.55;87.12;98137.63;5002818;28;20026;-81
2022/11/25 06:46:13;;;;;;;6.03;4.75;;;;;;;2.57;87.00;98140.88;4999527;28;20129;-81
2022/11/25 06:48:39;;;;;;;8.48;5.25;;;;;;;2.62;87.45;98149.00;5005979;28;20042;-81
2022/11/25 06:51:10;;;;;;;8.48;5.22;;;;;;;2.62;87.36;98143.81;5002904;28;20038;-81
2022/11/25 06:53:36;;;;;;;8.63;5.22;;;;;;;2.67;87.33;98154.56;4999843;28;20042;-81
2022/11/25 06:56:06;;;;;;;8.70;5.28;;;;;;;2.69;87.30;98147.44;5003431;28;20056;-81
2022/11/25 06:58:31;;;;;;;9.07;5.00;;;;;;;2.72;87.67;98149.75;5003865;28;20129;-81
2022/11/25 07:01:04;;;;;;;8.73;5.07;;;;;;;2.70;87.20;98151.69;5003545;28;20109;-81
2022/11/25 07:03:29;;;;;;;6.70;4.85;;;;;;;2.71;86.72;98168.84;5003427;28;20187;-82
2022/11/25 07:05:57;;;;;;;12.38;5.63;;;;;;;2.74;86.89;98163.34;5003346;28;20196;-81
2022/11/25 07:08:27;;;;;;;7.07;5.32;;;;;;;2.80;86.95;98167.94;5004288;28;20034;-81
2022/11/25 07:10:53;;;;;;;8.80;5.40;;;;;;;2.80;87.06;98165.34;4998459;28;20121;-81
2022/11/25 07:13:20;;;;;;;9.85;5.40;;;;;;;2.83;87.63;98172.84;5005100;28;20061;-81
2022/11/25 07:15:46;;;;;;;7.68;5.50;;;;;;;2.83;88.37;98183.22;5003266;28;20073;-81
2022/11/25 07:18:12;;;;;;;8.50;6.18;;;;;;;2.86;88.88;98180.31;5004982;28;20070;-81
2022/11/25 07:20:38;;;;;;;8.48;5.43;;;;;;;2.95;89.56;98188.97;5003738;28;20040;-81
2022/11/25 07:23:04;;;;;;;8.30;5.63;;;;;;;3.06;89.68;98187.91;5002900;28;20030;-81
2022/11/25 07:25:32;;;;;;;8.38;5.57;;;;;;;3.08;89.53;98171.25;5001063;28;20034;-81
2022/11/25 07:27:58;;;;;;;6.97;4.75;;;;;;;3.14;89.61;98180.22;4999915;28;20034;-81
2022/11/25 07:30:24;;;;;;;10.10;5.25;;;;;;;3.16;89.37;98175.69;5001848;28;20061;-80
2022/11/25 07:32:49;;;;;;;8.68;5.25;;;;;;;3.32;89.59;98187.97;5002100;28;20042;-81
2022/11/25 07:35:15;;;;;;;10.23;6.00;;;;;;;3.43;89.27;98193.72;5001657;28;20145;-81
2022/11/25 07:37:40;;;;;;;10.75;7.10;;;;;;;3.49;88.44;98195.72;5002763;28;20073;-81
2022/11/25 07:40:07;;;;;;;10.38;7.10;;;;;;;3.58;88.32;98198.34;5001435;28;20108;-81
2022/11/25 07:42:32;;;;;;;9.25;6.55;;;;;;;3.64;88.10;98197.72;5002549;28;20042;-81
2022/11/25 07:44:58;;;;;;;13.98;6.75;;;;;;;3.78;87.98;98209.31;4999659;28;20036;-81
2022/11/25 07:47:24;;;;;;;26.02;12.70;;;;;;;3.73;87.04;98202.81;5002685;28;20030;-81
2022/11/25 07:49:49;;;;;;;30.65;17.70;;;;;;;3.78;87.31;98198.94;5002687;28;20030;-81
2022/11/25 07:52:15;;;;;;;23.77;16.17;;;;;;;3.83;87.29;98207.06;5003473;28;20146;-81
2022/11/25 07:54:40;;;;;;;15.82;10.60;;;;;;;3.88;87.24;98199.66;5001158;28;20039;-81
2022/11/25 07:57:06;;;;;;;10.15;7.32;;;;;;;3.84;86.62;98208.69;5002562;28;20042;-81
2022/11/25 07:59:31;;;;;;;10.20;6.22;;;;;;;3.91;91.25;98215.72;4999931;28;20034;-81
2022/11/25 08:01:57;;;;;;;11.02;6.60;;;;;;;4.07;95.34;98212.38;5002184;28;20029;-81
2022/11/25 08:04:22;;;;;;;9.30;6.55;;;;;;;4.10;91.87;98219.88;5003150;28;20029;-81
2022/11/25 08:06:51;;;;;;;10.55;6.60;;;;;;;4.16;91.47;98216.66;5002292;28;20077;-81
2022/11/25 08:09:21;;;;;;;10.93;6.13;;;;;;;4.20;89.30;98219.78;5002992;28;20316;-81
2022/11/25 08:11:47;;;;;;;11.35;5.90;;;;;;;4.21;88.92;98224.78;5002877;28;20045;-82
2022/11/25 08:14:14;;;;;;;15.00;6.53;;;;;;;4.22;88.75;98191.84;5003043;28;20077;-81
2022/11/25 08:16:40;;;;;;;8.93;5.18;;;;;;;4.19;88.23;98213.72;5002693;28;20069;-81
2022/11/25 08:19:12;;;;;;;10.60;6.90;;;;;;;4.22;88.81;98207.44;5003541;28;20035;-81
2022/11/25 08:21:38;;;;;;;11.23;6.40;;;;;;;4.27;88.12;98207.78;5003033;28;20092;-81
2022/11/25 08:24:05;;;;;;;9.02;6.75;;;;;;;4.30;87.14;98213.47;5001658;28;20031;-81
2022/11/25 08:26:36;;;;;;;11.15;6.72;;;;;;;4.24;87.17;98200.28;5002377;28;20049;-80
2022/11/25 08:29:02;;;;;;;;;;;;;;;4.36;88.02;98191.25;5003562;28;20029;-81
2022/11/25 08:31:35;;;;;;;8.00;5.80;;;;;;;4.42;87.12;98192.41;5001436;28;19953;-82
2022/11/25 08:34:06;;;;;;;8.77;5.95;;;;;;;4.46;88.13;98198.91;5003313;28;20097;-81
2022/11/25 08:36:34;;;;;;;10.77;7.28;;;;;;;4.60;88.66;98200.06;5003795;28;20092;-81
2022/11/25 08:39:05;;;;;;;10.07;6.72;;;;;;;4.67;88.18;98201.06;5002020;28;20030;-81
2022/11/25 08:41:34;;;;;;;9.70;5.95;;;;;;;4.76;86.96;98205.31;5002471;28;20037;-81
2022/11/25 08:44:04;;;;;;;10.25;6.50;;;;;;;4.84;86.28;98208.72;5001003;28;20026;-81
2022/11/25 08:46:35;;;;;;;20.83;6.90;;;;;;;4.80;85.99;98204.84;4997665;28;20117;-81
2022/11/25 08:49:03;;;;;;;10.25;5.72;;;;;;;4.90;86.32;98212.47;5001885;28;20041;-81
2022/11/25 08:51:33;;;;;;;10.55;6.32;;;;;;;4.97;86.11;98218.66;5000552;28;20088;-82
2022/11/25 08:54:00;;;;;;;11.90;5.43;;;;;;;5.06;85.74;98220.28;5000618;28;20486;-81
2022/11/25 08:56:27;;;;;;;10.18;6.00;;;;;;;5.16;85.42;98225.34;5000585;28;20403;-81
2022/11/25 08:58:54;;;;;;;10.93;6.70;;;;;;;5.19;85.44;98226.81;5000064;28;20045;-81
2022/11/25 09:01:22;;;;;;;9.35;6.32;;;;;;;5.41;85.59;98226.16;4999676;28;20042;-81
2022/11/25 09:03:51;;;;;;;12.52;6.78;;;;;;;5.50;84.66;98226.94;5001873;28;20026;-81
2022/11/25 09:06:18;;;;;;;8.63;6.25;;;;;;;5.57;84.64;98227.91;5001589;28;20049;-80
2022/11/25 09:08:44;;;;;;;10.00;5.45;;;;;;;5.59;83.71;98220.78;4999521;28;20038;-81
2022/11/25 09:11:11;;;;;;;9.45;6.85;;;;;;;5.63;83.34;98224.66;5000155;28;20034;-81
2022/11/25 09:13:36;;;;;;;11.48;5.72;;;;;;;5.72;83.66;98228.06;5001863;28;20486;-81
2022/11/25 09:16:03;;;;;;;11.10;6.18;;;;;;;5.70;82.58;98224.81;5003381;28;20037;-81
2022/11/25 09:18:30;;;;;;;9.95;6.20;;;;;;;5.80;83.45;98230.66;5002472;28;20046;-81
2022/11/25 09:20:57;;;;;;;8.95;5.95;;;;;;;5.92;83.76;98234.56;5003218;28;20030;-81
2022/11/25 09:23:23;;;;;;;9.02;6.30;;;;;;;5.94;82.69;98237.84;5001799;28;20042;-81
2022/11/25 09:25:57;;;;;;;9.70;5.90;;;;;;;6.02;83.15;98237.00;5001249;28;20056;-80
2022/11/25 09:28:25;;;;;;;7.18;5.45;;;;;;;6.01;82.30;98223.16;5002779;28;20048;-80
2022/11/25 09:30:51;;;;;;;6.85;4.95;;;;;;;6.06;81.63;98227.88;4999876;28;20524;-80
2022/11/25 09:33:19;;;;;;;7.35;4.85;;;;;;;6.15;82.08;98232.88;5000717;28;20042;-80
2022/11/25 09:35:45;;;;;;;6.85;4.95;;;;;;;6.20;80.94;98237.59;5000078;28;20034;-81
2022/11/25 09:38:11;;;;;;;8.18;4.30;;;;;;;6.31;80.26;98239.81;5000134;28;20034;-81
2022/11/25 09:41:05;;;;;;;7.63;4.38;;;;;;;6.46;79.85;98236.50;5000967;28;20045;-81
2022/11/25 09:47:04;;;;;;;6.93;4.47;;;;;;;6.74;79.25;98239.47;4999993;28;20042;-81
2022/11/25 09:50:19;;;;;;;5.88;4.68;;;;;;;6.68;78.75;98244.38;5002107;28;20050;-81
2022/11/25 09:52:59;;;;;;;7.55;4.63;;;;;;;6.57;78.86;98234.31;5014204;28;20056;-81
2022/11/25 09:55:34;;;;;;;7.25;4.95;;;;;;;6.61;78.53;98240.03;5002285;28;20030;-81
2022/11/25 09:58:34;;;;;;;5.45;4.07;;;;;;;6.57;78.04;98239.53;5002657;28;20036;-82
2022/11/25 10:01:11;;;;;;;5.45;4.13;;;;;;;6.69;79.86;98248.59;5001893;28;20373;-81
2022/11/25 10:03:39;;;;;;;5.97;3.78;;;;;;;6.77;79.31;98241.72;5001839;28;20038;-81
2022/11/25 10:06:20;;;;;;;10.57;5.30;;;;;;;6.87;79.02;98230.09;5001430;28;20034;-81
2022/11/25 10:08:51;;;;;;;;;;;;;;;6.69;77.87;98232.97;5002581;28;20389;-81
2022/11/25 10:11:29;;;;;;;8.93;3.40;;;;;;;6.60;76.96;98239.22;4999701;28;19917;-81
2022/11/25 10:14:22;;;;;;;6.05;3.92;;;;;;;6.71;77.18;98230.97;5017501;28;20390;-81
2022/11/25 10:17:04;;;;;;;5.57;3.63;;;;;;;6.95;78.42;98231.81;5002564;28;20049;-81
2022/11/25 10:19:49;;;;;;;5.25;3.60;;;;;;;7.10;76.78;98231.91;5000505;28;20045;-81
2022/11/25 10:22:32;;;;;;;9.90;5.30;;;;;;;7.19;75.75;98217.81;5006051;28;20053;-81
2022/11/25 10:25:13;;;;;;;7.72;4.35;;;;;;;7.28;75.13;98232.41;5002185;28;20076;-81
2022/11/25 10:27:58;;;;;;;6.47;4.40;;;;;;;7.38;76.14;98232.19;5005667;28;20498;-81
2022/11/25 10:30:34;;;;;;;5.10;3.60;;;;;;;7.42;74.03;98236.84;5004355;28;20054;-81
2022/11/25 10:33:30;;;;;;;7.22;4.47;;;;;;;7.39;74.96;98236.41;5004262;28;20080;-81
2022/11/25 10:36:09;;;;;;;4.30;3.70;;;;;;;7.49;74.47;98232.56;5003026;28;20583;-81
2022/11/25 10:38:44;;;;;;;7.40;3.92;;;;;;;7.59;74.63;98219.25;5002724;28;20045;-81
2022/11/25 10:41:19;;;;;;;4.93;4.20;;;;;;;7.82;75.01;98221.00;5006343;28;20477;-82
2022/11/25 10:43:46;;;;;;;7.38;4.78;;;;;;;7.98;73.60;98213.03;5005221;28;20113;-82
2022/11/25 10:46:21;;;;;;;7.00;4.63;;;;;;;8.00;72.74;98211.03;5016983;28;20106;-81
2022/11/25 10:49:06;;;;;;;6.13;4.00;;;;;;;7.94;71.91;98202.09;5005114;28;20038;-81
2022/11/25 10:51:44;;;;;;;7.88;4.75;;;;;;;7.87;72.38;98205.63;5004393;28;20044;-81
2022/11/25 10:54:23;;;;;;;6.15;4.35;;;;;;;7.96;72.97;98199.31;5004765;28;20049;-82
2022/11/25 10:57:00;;;;;;;6.22;4.30;;;;;;;8.09;73.07;98198.66;5004634;28;20084;-81
2022/11/25 10:59:35;;;;;;;6.10;4.35;;;;;;;8.16;73.00;98203.00;5003757;28;20064;-81
2022/11/25 11:02:25;;;;;;;7.05;4.00;;;;;;;8.22;72.60;98212.75;5004701;28;20528;-81
2022/11/25 11:05:15;;;;;;;6.07;4.63;;;;;;;8.34;73.05;98207.88;5005073;28;20597;-81
2022/11/25 11:07:43;;;;;;;7.97;4.97;;;;;;;8.26;71.19;98208.75;5004276;28;20042;-82
2022/11/25 11:10:21;;;;;;;8.77;5.00;;;;;;;8.33;72.12;98216.66;5003702;28;20088;-81
2022/11/25 11:12:57;;;;;;;6.88;4.68;;;;;;;8.29;71.46;98211.00;5002959;28;20118;-81
2022/11/25 11:15:24;;;;;;;6.43;4.50;;;;;;;8.38;73.30;98210.94;5000020;28;20069;-81
2022/11/25 11:17:50;;;;;;;8.50;5.28;;;;;;;8.39;71.73;98202.09;5002461;28;20042;-81
2022/11/25 11:20:30;;;;;;;5.78;4.70;;;;;;;8.43;71.75;98204.16;5005378;28;20041;-81
2022/11/25 11:23:12;;;;;;;7.78;4.45;;;;;;;8.53;71.32;98206.50;5001169;28;20441;-81
2022/11/25 11:25:43;;;;;;;9.38;5.10;;;;;;;8.67;72.89;98203.03;5002560;28;20048;-81
2022/11/25 11:28:28;;;;;;;7.25;4.93;;;;;;;8.92;71.35;98211.34;5004571;28;20037;-81
2022/11/25 11:31:05;;;;;;;5.93;4.35;;;;;;;9.06;70.73;98215.72;5002714;28;20077;-81
2022/11/25 11:34:08;;;;;;;5.03;4.22;;;;;;;9.07;69.79;98208.69;5004429;28;20367;-82
2022/11/25 11:37:07;;;;;;;8.55;4.30;;;;;;;9.22;69.65;98205.97;5001751;28;20061;-81
2022/11/25 11:40:12;;;;;;;5.50;4.07;;;;;;;9.17;67.42;98213.59;5003761;28;20588;-82
2022/11/25 11:43:04;;;;;;;5.95;4.40;;;;;;;9.10;68.75;98210.91;5003822;28;20045;-80
2022/11/25 11:45:54;;;;;;;5.82;4.30;;;;;;;8.89;68.51;98203.06;5001699;28;20477;-81
2022/11/25 11:48:28;;;;;;;6.00;4.28;;;;;;;8.79;69.01;98209.41;5002124;28;20465;-80
2022/11/25 11:51:20;;;;;;;6.28;4.55;;;;;;;8.76;69.51;98220.25;5003275;28;20030;-81
2022/11/25 11:54:01;;;;;;;9.35;4.47;;;;;;;8.59;68.90;98216.22;5003686;28;20034;-81
2022/11/25 11:57:06;;;;;;;6.95;4.78;;;;;;;8.58;69.94;98218.03;5002358;28;20032;-81
2022/11/25 11:59:59;;;;;;;6.85;4.45;;;;;;;8.69;72.20;98221.94;5003418;28;20035;-81
2022/11/25 12:02:35;;;;;;;8.68;4.80;;;;;;;8.67;71.44;98223.94;5002896;28;20653;-81
2022/11/25 12:05:16;;;;;;;5.03;3.95;;;;;;;8.77;71.79;98229.72;5002285;28;20022;-82